createdAt,value
2018-12-03T00:00:31.065Z,99281.36
2018-12-03T00:03:01.537Z,99277.75
2018-12-03T00:05:31.193Z,99273.24
2018-12-03T00:08:00.888Z,99275.48
2018-12-03T00:10:30.596Z,99272.77
2018-12-03T00:13:00.243Z,99267.86
2018-12-03T00:15:29.923Z,99259.65
2018-12-03T00:17:59.672Z,99256.52
2018-12-03T00:20:29.352Z,99253.31
2018-12-03T00:22:59.042Z,99245.32
2018-12-03T00:25:28.715Z,99248.54
2018-12-03T00:27:58.406Z,99243.85
2018-12-03T00:30:28.076Z,99243.06
2018-12-03T00:32:58.024Z,99245.91
2018-12-03T00:35:27.740Z,99244.48
2018-12-03T00:37:57.386Z,99252.70
2018-12-03T00:40:28.821Z,99256.50
2018-12-03T00:42:58.502Z,99259.49
2018-12-03T00:45:30.815Z,99269.77
2018-12-03T00:48:00.498Z,99251.41
2018-12-03T00:50:30.163Z,99244.25
2018-12-03T00:52:59.840Z,99250.50
2018-12-03T00:55:29.515Z,99248.36
2018-12-03T00:57:59.191Z,99250.52
2018-12-03T01:00:28.839Z,99245.36
2018-12-03T01:02:58.533Z,99244.89
2018-12-03T01:05:28.206Z,99235.57
2018-12-03T01:07:57.895Z,99247.39
2018-12-03T01:10:27.556Z,99244.20
2018-12-03T01:12:57.244Z,99240.83
2018-12-03T01:15:27.452Z,99250.64
2018-12-03T01:17:57.143Z,99251.47
2018-12-03T01:20:26.802Z,99261.03
2018-12-03T01:22:56.842Z,99263.52
2018-12-03T01:25:29.965Z,99272.84
2018-12-03T01:27:59.697Z,99273.91
2018-12-03T01:30:29.342Z,99279.64
2018-12-03T01:33:00.444Z,99275.11
2018-12-03T01:35:30.108Z,99284.75
2018-12-03T01:37:59.771Z,99282.50
2018-12-03T01:40:29.793Z,99282.86
2018-12-03T01:42:59.460Z,99277.63
2018-12-03T01:45:29.796Z,99284.87
2018-12-03T01:47:59.455Z,99281.55
2018-12-03T01:50:29.153Z,99279.73
2018-12-03T01:52:58.823Z,99287.36
2018-12-03T01:55:28.489Z,99279.63
2018-12-03T01:57:58.163Z,99280.23
2018-12-03T02:00:27.842Z,99291.90
2018-12-03T02:02:57.515Z,99281.17
2018-12-03T02:05:28.528Z,99285.58
2018-12-03T02:08:03.180Z,99282.81
2018-12-03T02:10:32.847Z,99281.27
2018-12-03T02:13:02.526Z,99282.58
2018-12-03T02:15:32.197Z,99285.20
2018-12-03T02:18:02.248Z,99269.84
2018-12-03T02:20:32.813Z,99267.81
2018-12-03T02:23:02.503Z,99259.56
2018-12-03T02:25:32.217Z,99256.23
2018-12-03T02:28:01.896Z,99242.52
2018-12-03T02:30:31.580Z,99252.53
2018-12-03T02:33:01.259Z,99253.23
2018-12-03T02:35:30.934Z,99250.52
2018-12-03T02:38:00.612Z,99254.55
2018-12-03T02:40:30.314Z,99248.36
2018-12-03T02:42:59.968Z,99250.98
2018-12-03T02:45:30.824Z,99253.48
2018-12-03T02:48:00.498Z,99251.33
2018-12-03T02:50:30.197Z,99245.36
2018-12-03T02:52:59.851Z,99240.48
2018-12-03T02:55:29.554Z,99230.46
2018-12-03T02:57:59.217Z,99224.50
2018-12-03T03:00:33.556Z,99219.50
2018-12-03T03:03:03.196Z,99223.43
2018-12-03T03:05:33.033Z,99214.56
2018-12-03T03:08:02.979Z,99208.62
2018-12-03T03:10:32.644Z,99203.13
2018-12-03T03:13:02.309Z,99195.39
2018-12-03T03:15:31.972Z,99212.92
2018-12-03T03:18:01.641Z,99219.94
2018-12-03T03:20:34.395Z,99218.26
2018-12-03T03:23:04.072Z,99214.80
2018-12-03T03:25:33.738Z,99216.38
2018-12-03T03:28:03.415Z,99219.34
2018-12-03T03:30:34.759Z,99229.73
2018-12-03T03:33:04.455Z,99221.72
2018-12-03T03:35:34.100Z,99217.08
2018-12-03T03:38:03.803Z,99222.33
2018-12-03T03:40:33.488Z,99220.18
2018-12-03T03:43:03.200Z,99217.58
2018-12-03T03:45:33.362Z,99210.56
2018-12-03T03:48:03.045Z,99217.20
2018-12-03T03:50:32.754Z,99205.94
2018-12-03T03:53:02.461Z,99217.14
2018-12-03T03:55:32.158Z,99205.34
2018-12-03T03:58:01.846Z,99206.05
2018-12-03T04:00:31.542Z,99208.56
2018-12-03T04:03:08.897Z,99207.11
2018-12-03T04:05:38.622Z,99214.13
2018-12-03T04:08:08.324Z,99215.91
2018-12-03T04:10:38.023Z,99222.73
2018-12-03T04:13:07.742Z,99234.17
2018-12-03T04:15:37.579Z,99235.59
2018-12-03T04:18:07.360Z,99234.64
2018-12-03T04:20:37.050Z,99226.30
2018-12-03T04:23:07.911Z,99221.53
2018-12-03T04:25:37.642Z,99224.98
2018-12-03T04:28:07.371Z,99233.31
2018-12-03T04:30:37.166Z,99236.80
2018-12-03T04:33:06.918Z,99226.76
2018-12-03T04:35:36.620Z,99234.16
2018-12-03T04:38:06.376Z,99231.77
2018-12-03T04:40:36.077Z,99227.69
2018-12-03T04:43:06.235Z,99225.67
2018-12-03T04:45:35.940Z,99227.23
2018-12-03T04:48:06.580Z,99230.94
2018-12-03T04:50:36.270Z,99243.35
2018-12-03T04:53:06.118Z,99233.11
2018-12-03T04:55:35.859Z,99237.76
2018-12-03T04:58:05.646Z,99240.99
2018-12-03T05:00:35.357Z,99244.47
2018-12-03T05:03:05.488Z,99248.49
2018-12-03T05:05:35.204Z,99238.98
2018-12-03T05:08:07.428Z,99254.47
2018-12-03T05:10:37.099Z,99256.86
2018-12-03T05:13:08.202Z,99259.50
2018-12-03T05:15:37.906Z,99264.50
2018-12-03T05:18:07.631Z,99259.12
2018-12-03T05:20:37.318Z,99268.77
2018-12-03T05:23:06.987Z,99269.37
2018-12-03T05:25:36.736Z,99276.41
2018-12-03T05:28:06.862Z,99259.00
2018-12-03T05:30:36.521Z,99266.63
2018-12-03T05:33:06.449Z,99259.60
2018-12-03T05:35:36.107Z,99262.46
2018-12-03T05:38:06.057Z,99262.23
2018-12-03T05:40:35.725Z,99258.19
2018-12-03T05:43:05.409Z,99267.00
2018-12-03T05:45:35.051Z,99270.80
2018-12-03T05:48:04.932Z,99260.21
2018-12-03T05:50:35.508Z,99266.30
2018-12-03T05:53:05.301Z,99272.72
2018-12-03T05:55:34.964Z,99264.61
2018-12-03T05:58:04.633Z,99263.67
2018-12-03T06:00:35.734Z,99270.70
2018-12-03T06:03:05.808Z,99279.27
2018-12-03T06:05:36.539Z,99275.58
2018-12-03T06:08:06.240Z,99286.91
2018-12-03T06:10:35.901Z,99286.67
2018-12-03T06:13:07.575Z,99284.75
2018-12-03T06:15:39.336Z,99287.88
2018-12-03T06:18:09.046Z,99292.98
2018-12-03T06:20:39.551Z,99288.82
2018-12-03T06:23:11.014Z,99285.13
2018-12-03T06:25:40.868Z,99294.44
2018-12-03T06:28:10.549Z,99287.51
2018-12-03T06:30:40.555Z,99291.81
2018-12-03T06:33:14.884Z,99291.67
2018-12-03T06:35:45.848Z,99288.45
2018-12-03T06:38:15.621Z,99288.82
2018-12-03T06:40:47.143Z,99290.84
2018-12-03T06:43:16.827Z,99285.97
2018-12-03T06:45:48.412Z,99283.44
2018-12-03T06:48:18.140Z,99282.97
2018-12-03T06:50:47.817Z,99290.13
2018-12-03T06:53:19.155Z,99295.48
2018-12-03T06:55:49.193Z,99290.13
2018-12-03T06:58:20.516Z,99287.64
2018-12-03T07:00:50.180Z,99298.66
2018-12-03T07:03:19.847Z,99304.17
2018-12-03T07:05:49.520Z,99308.84
2018-12-03T07:08:19.200Z,99306.47
2018-12-03T07:10:50.084Z,99296.92
2018-12-03T07:13:21.044Z,99309.66
2018-12-03T07:15:52.317Z,99315.03
2018-12-03T07:18:21.954Z,99314.86
2018-12-03T07:20:51.617Z,99321.41
2018-12-03T07:23:24.540Z,99317.36
2018-12-03T07:25:54.268Z,99313.29
2018-12-03T07:28:24.047Z,99324.27
2018-12-03T07:30:55.323Z,99331.99
2018-12-03T07:33:26.335Z,99333.67
2018-12-03T07:35:57.629Z,99334.98
2018-12-03T07:38:27.313Z,99332.70
2018-12-03T07:40:57.097Z,99327.46
2018-12-03T07:43:26.800Z,99334.74
2018-12-03T07:45:56.475Z,99325.67
2018-12-03T07:48:27.855Z,99329.60
2018-12-03T07:50:57.500Z,99329.61
2018-12-03T07:53:27.188Z,99333.31
2018-12-03T07:55:56.924Z,99340.25
2018-12-03T07:58:27.795Z,99346.07
2018-12-03T08:00:57.482Z,99348.68
2018-12-03T08:03:27.177Z,99341.19
2018-12-03T08:05:56.837Z,99347.95
2018-12-03T08:08:26.540Z,99357.61
2018-12-03T08:10:56.222Z,99353.67
2018-12-03T08:13:25.941Z,99357.26
2018-12-03T08:15:55.676Z,99358.81
2018-12-03T08:18:25.363Z,99363.83
2018-12-03T08:20:55.647Z,99355.36
2018-12-03T08:23:25.492Z,99364.06
2018-12-03T08:25:55.196Z,99359.30
2018-12-03T08:28:24.863Z,99362.14
2018-12-03T08:30:54.523Z,99360.13
2018-12-03T08:33:24.189Z,99357.84
2018-12-03T08:35:53.879Z,99366.30
2018-12-03T08:38:23.528Z,99379.88
2018-12-03T08:40:53.360Z,99363.08
2018-12-03T08:43:23.074Z,99361.30
2018-12-03T08:45:56.362Z,99365.23
2018-12-03T08:48:27.518Z,99368.59
2018-12-03T08:50:59.499Z,99375.24
2018-12-03T08:53:29.445Z,99371.67
2018-12-03T08:55:59.143Z,99363.80
2018-12-03T08:58:28.860Z,99368.45
2018-12-03T09:00:58.869Z,99376.78
2018-12-03T09:03:31.468Z,99373.67
2018-12-03T09:06:04.481Z,99380.00
2018-12-03T09:08:34.241Z,99374.98
2018-12-03T09:11:03.916Z,99380.00
2018-12-03T09:13:33.576Z,99375.71
2018-12-03T09:16:03.274Z,99378.11
2018-12-03T09:18:32.940Z,99387.44
2018-12-03T09:21:04.291Z,99379.81
2018-12-03T09:23:33.994Z,99387.79
2018-12-03T09:26:03.653Z,99393.91
2018-12-03T09:28:34.859Z,99393.44
2018-12-03T09:31:04.951Z,99393.81
2018-12-03T09:33:35.475Z,99395.22
2018-12-03T09:36:05.495Z,99390.77
2018-12-03T09:38:36.652Z,99389.55
2018-12-03T09:41:08.282Z,99386.23
2018-12-03T09:43:42.024Z,99392.50
2018-12-03T09:46:11.674Z,99390.55
2018-12-03T09:48:41.343Z,99390.88
2018-12-03T09:51:11.877Z,99396.25
2018-12-03T09:53:43.422Z,99393.44
2018-12-03T09:56:13.081Z,99391.48
2018-12-03T09:58:42.774Z,99394.70
2018-12-03T10:01:12.633Z,99399.70
2018-12-03T10:03:42.348Z,99396.11
2018-12-03T10:06:12.028Z,99392.42
2018-12-03T10:08:41.724Z,99401.20
2018-12-03T10:11:12.878Z,99406.91
2018-12-03T10:13:45.775Z,99379.85
2018-12-03T10:16:18.912Z,99376.93
2018-12-03T10:18:48.644Z,99373.97
2018-12-03T10:21:21.181Z,99381.80
2018-12-03T10:23:50.884Z,99379.25
2018-12-03T10:26:23.177Z,99373.48
2018-12-03T10:28:52.851Z,99378.02
2018-12-03T10:31:22.518Z,99371.84
2018-12-03T10:33:52.170Z,99364.47
2018-12-03T10:36:21.913Z,99359.00
2018-12-03T10:43:47.525Z,99345.25
2018-12-03T10:46:17.136Z,99348.69
2018-12-03T10:48:47.467Z,99347.75
2018-12-03T10:51:17.117Z,99334.52
2018-12-03T10:53:46.764Z,99332.63
2018-12-03T10:56:18.156Z,99335.41
2018-12-03T10:58:48.231Z,99324.34
2018-12-03T11:01:23.593Z,99331.00
2018-12-03T11:04:01.595Z,99325.06
2018-12-03T11:06:31.304Z,99334.00
2018-12-03T11:09:01.017Z,99330.41
2018-12-03T11:11:30.706Z,99330.87
2018-12-03T11:14:02.183Z,99333.39
2018-12-03T11:16:31.796Z,99323.02
2018-12-03T11:19:01.526Z,99330.07
2018-12-03T11:21:32.315Z,99320.16
2018-12-03T11:24:02.850Z,99319.21
2018-12-03T11:26:33.366Z,99324.59
2018-12-03T11:29:03.226Z,99317.30
2018-12-03T11:31:33.621Z,99326.95
2018-12-03T11:34:03.337Z,99331.38
2018-12-03T11:36:33.008Z,99332.70
2018-12-03T11:39:02.868Z,99331.95
2018-12-03T11:41:32.484Z,99325.53
2018-12-03T11:44:02.087Z,99321.70
2018-12-03T11:46:31.713Z,99315.64
2018-12-03T11:49:03.018Z,99308.25
2018-12-03T11:51:32.793Z,99311.67
2018-12-03T11:54:02.374Z,99305.02
2018-12-03T11:56:32.701Z,99303.47
2018-12-03T11:59:03.203Z,99307.63
2018-12-03T12:01:33.168Z,99303.33
2018-12-03T12:04:02.770Z,99302.98
2018-12-03T12:06:32.459Z,99301.18
2018-12-03T12:09:02.231Z,99292.00
2018-12-03T12:11:31.852Z,99290.95
2018-12-03T12:14:01.536Z,99288.79
2018-12-03T12:16:31.146Z,99296.42
2018-12-03T12:19:00.730Z,99290.56
2018-12-03T12:21:30.343Z,99298.91
2018-12-03T12:23:59.975Z,99291.64
2018-12-03T12:26:29.560Z,99281.98
2018-12-03T12:28:59.216Z,99286.41
2018-12-03T12:31:29.972Z,99278.41
2018-12-03T12:33:59.555Z,99269.68
2018-12-03T12:36:29.852Z,99264.34
2018-12-03T12:38:59.494Z,99268.52
2018-12-03T12:41:29.116Z,99251.83
2018-12-03T12:43:58.761Z,99257.06
2018-12-03T12:46:28.477Z,99254.55
2018-12-03T12:48:58.037Z,99259.08
2018-12-03T12:51:29.735Z,99259.55
2018-12-03T12:53:59.348Z,99253.36
2018-12-03T12:56:29.298Z,99256.08
2018-12-03T12:58:58.869Z,99249.18
2018-12-03T13:01:30.384Z,99246.28
2018-12-03T13:04:01.515Z,99247.98
2018-12-03T13:06:31.300Z,99237.01
2018-12-03T13:09:01.014Z,99234.47
2018-12-03T13:11:30.665Z,99240.56
2018-12-03T13:14:00.287Z,99232.84
2018-12-03T13:16:30.890Z,99229.75
2018-12-03T13:19:01.651Z,99238.77
2018-12-03T13:21:31.326Z,99231.15
2018-12-03T13:24:01.447Z,99221.51
2018-12-03T13:26:31.040Z,99214.11
2018-12-03T13:29:01.171Z,99207.70
2018-12-03T13:31:30.837Z,99220.45
2018-12-03T13:34:00.476Z,99204.12
2018-12-03T13:36:31.645Z,99208.09
2018-12-03T13:39:01.403Z,99212.03
2018-12-03T13:41:31.095Z,99207.03
2018-12-03T13:44:00.835Z,99208.11
2018-12-03T13:46:30.587Z,99203.91
2018-12-03T13:49:01.684Z,99198.09
2018-12-03T13:51:31.275Z,99197.02
2018-12-03T13:54:00.874Z,99197.25
2018-12-03T13:56:30.468Z,99201.04
2018-12-03T13:59:00.323Z,99191.52
2018-12-03T14:01:29.955Z,99192.84
2018-12-03T14:06:42.070Z,99183.77
2018-12-03T14:09:12.097Z,99192.36
2018-12-03T14:11:41.783Z,99190.21
2018-12-03T14:14:13.808Z,99191.40
2018-12-03T14:16:43.732Z,99204.89
2018-12-03T14:19:17.382Z,99204.76
2018-12-03T14:21:47.033Z,99208.93
2018-12-03T14:24:20.362Z,99194.52
2018-12-03T14:26:50.160Z,99187.03
2018-12-03T14:29:19.940Z,99187.64
2018-12-03T14:31:49.516Z,99193.96
2018-12-03T14:34:19.382Z,99198.62
2018-12-03T14:36:49.051Z,99202.05
2018-12-03T14:39:18.638Z,99199.53
2018-12-03T14:41:48.522Z,99195.13
2018-12-03T14:44:18.500Z,99203.59
2018-12-03T14:46:48.075Z,99196.34
2018-12-03T14:49:17.667Z,99198.36
2018-12-03T14:51:47.342Z,99202.19
2018-12-03T14:54:16.965Z,99190.86
2018-12-03T14:56:46.555Z,99193.95
2018-12-03T14:59:16.170Z,99183.58
2018-12-03T15:01:45.786Z,99192.41
2018-12-03T15:04:16.348Z,99190.50
2018-12-03T15:06:45.946Z,99193.25
2018-12-03T15:09:15.520Z,99196.58
2018-12-03T15:11:45.126Z,99191.44
2018-12-03T15:14:14.736Z,99197.28
2018-12-03T15:16:44.323Z,99195.73
2018-12-03T15:19:13.915Z,99185.02
2018-12-03T15:21:43.492Z,99185.49
2018-12-03T15:24:13.516Z,99193.02
2018-12-03T15:26:43.451Z,99186.09
2018-12-03T15:29:13.212Z,99194.89
2018-12-03T15:31:42.859Z,99200.13
2018-12-03T15:34:12.712Z,99196.33
2018-12-03T15:36:42.556Z,99202.04
2018-12-03T15:39:12.475Z,99197.27
2018-12-03T15:41:42.056Z,99210.03
2018-12-03T15:44:11.645Z,99212.88
2018-12-03T15:46:41.283Z,99204.66
2018-12-03T15:49:10.916Z,99208.81
2018-12-03T15:51:40.528Z,99209.55
2018-12-03T15:54:10.149Z,99204.78
2018-12-03T15:56:39.734Z,99201.45
2018-12-03T15:59:09.355Z,99198.34
2018-12-03T16:01:38.912Z,99201.69
2018-12-03T16:04:08.536Z,99196.67
2018-12-03T16:06:38.218Z,99210.72
2018-12-03T16:09:10.621Z,99202.16
2018-12-03T16:11:40.199Z,99209.41
2018-12-03T16:14:09.856Z,99211.32
2018-12-03T16:16:39.494Z,99215.34
2018-12-03T16:19:10.880Z,99203.31
2018-12-03T16:21:40.451Z,99201.06
2018-12-03T16:24:10.098Z,99194.98
2018-12-03T16:26:39.682Z,99188.32
2018-12-03T16:29:09.271Z,99193.64
2018-12-03T16:31:38.865Z,99195.33
2018-12-03T16:34:08.562Z,99189.00
2018-12-03T16:36:38.318Z,99189.60
2018-12-03T16:39:08.412Z,99187.94
2018-12-03T16:41:37.973Z,99180.33
2018-12-03T16:44:07.614Z,99189.12
2018-12-03T16:46:37.392Z,99177.48
2018-12-03T16:49:06.977Z,99170.11
2018-12-03T16:51:36.561Z,99180.34
2018-12-03T16:54:06.241Z,99182.86
2018-12-03T16:56:35.862Z,99187.36
2018-12-03T16:59:06.961Z,99171.80
2018-12-03T17:01:36.602Z,99190.00
2018-12-03T17:04:06.342Z,99189.53
2018-12-03T17:06:36.144Z,99195.61
2018-12-03T17:09:07.124Z,99182.75
2018-12-03T17:11:36.704Z,99183.69
2018-12-03T17:14:06.321Z,99189.17
2018-12-03T17:16:35.922Z,99198.71
2018-12-03T17:19:05.601Z,99185.02
2018-12-03T17:21:35.243Z,99180.14
2018-12-03T17:24:06.428Z,99145.95
2018-12-03T17:26:36.755Z,99191.09
2018-12-03T17:29:06.354Z,99185.01
2018-12-03T17:31:35.932Z,99180.37
2018-12-03T17:34:05.639Z,99185.60
2018-12-03T17:36:35.235Z,99180.73
2018-12-03T17:39:07.704Z,99194.77
2018-12-03T17:41:37.324Z,99212.62
2018-12-03T17:44:07.074Z,99194.53
2018-12-03T17:46:36.947Z,99196.55
2018-12-03T17:49:06.572Z,99201.19
2018-12-03T17:51:36.161Z,99209.55
2018-12-03T17:54:05.835Z,99208.48
2018-12-03T17:56:35.488Z,99207.51
2018-12-03T17:59:06.341Z,99206.56
2018-12-03T18:01:35.896Z,99216.11
2018-12-03T18:04:05.641Z,99208.48
2018-12-03T18:06:35.298Z,99216.11
2018-12-03T18:09:06.431Z,99221.91
2018-12-03T18:11:36.066Z,99209.05
2018-12-03T18:14:06.732Z,99211.93
2018-12-03T18:16:36.293Z,99205.48
2018-12-03T18:19:05.985Z,99222.98
2018-12-03T18:21:35.587Z,99217.75
2018-12-03T18:24:05.202Z,99227.38
2018-12-03T18:26:35.133Z,99218.48
2018-12-03T18:29:04.746Z,99224.91
2018-12-03T18:31:34.354Z,99228.46
2018-12-03T18:34:03.932Z,99229.44
2018-12-03T18:36:33.555Z,99240.62
2018-12-03T18:39:03.813Z,99238.59
2018-12-03T18:41:33.373Z,99246.09
2018-12-03T18:44:02.995Z,99238.45
2018-12-03T18:46:33.021Z,99244.41
2018-12-03T18:49:02.976Z,99244.55
2018-12-03T18:51:32.698Z,99236.45
2018-12-03T18:54:02.298Z,99246.23
2018-12-03T18:56:32.194Z,99246.56
2018-12-03T18:59:01.903Z,99246.47
2018-12-03T19:01:31.504Z,99251.94
2018-12-03T19:04:02.263Z,99248.13
2018-12-03T19:06:34.531Z,99249.56
2018-12-03T19:09:06.075Z,99242.64
2018-12-03T19:11:35.642Z,99243.48
2018-12-03T19:14:05.260Z,99249.56
2018-12-03T19:16:34.841Z,99247.55
2018-12-03T19:19:04.425Z,99245.16
2018-12-03T19:21:36.296Z,99253.73
2018-12-03T19:24:08.373Z,99257.89
2018-12-03T19:26:39.400Z,99261.22
2018-12-03T19:29:10.078Z,99268.00
2018-12-03T19:31:40.830Z,99271.94
2018-12-03T19:34:10.786Z,99267.54
2018-12-03T19:36:42.137Z,99278.27
2018-12-03T19:39:15.816Z,99276.34
2018-12-03T19:41:47.052Z,99266.09
2018-12-03T19:44:18.164Z,99269.31
2018-12-03T19:46:49.286Z,99280.29
2018-12-03T19:49:20.492Z,99288.39
2018-12-03T19:51:50.924Z,99292.31
2018-12-03T19:54:21.721Z,99303.03
2018-12-03T19:56:52.545Z,99302.41
2018-12-03T19:59:23.558Z,99308.25
2018-12-03T20:01:56.298Z,99307.26
2018-12-03T20:07:37.662Z,99315.09
2018-12-03T20:10:09.087Z,99317.39
2018-12-03T20:12:39.547Z,99319.55
2018-12-03T20:15:11.083Z,99325.47
2018-12-03T20:17:41.874Z,99336.79
2018-12-03T20:20:12.897Z,99336.89
2018-12-03T20:22:42.746Z,99340.10
2018-12-03T20:25:13.935Z,99336.42
2018-12-03T20:27:45.055Z,99351.30
2018-12-03T20:30:21.318Z,99340.58
2018-12-03T20:32:51.063Z,99344.87
2018-12-03T20:35:22.284Z,99349.27
2018-12-03T20:37:53.241Z,99338.90
2018-12-03T20:40:24.887Z,99352.53
2018-12-03T20:42:56.080Z,99356.39
2018-12-03T20:45:37.280Z,99356.14
2018-12-03T20:48:08.626Z,99357.57
2018-12-03T20:50:43.448Z,99362.34
2018-12-03T20:53:12.772Z,99364.00
2018-12-03T20:55:43.516Z,99371.47
2018-12-03T20:58:13.988Z,99370.64
2018-12-03T21:00:44.017Z,99375.03
2018-12-03T21:03:14.201Z,99371.60
2018-12-03T21:05:44.743Z,99376.00
2018-12-03T21:08:15.599Z,99380.77
2018-12-03T21:10:46.580Z,99382.27
2018-12-03T21:13:18.334Z,99397.75
2018-12-03T21:15:49.001Z,99404.08
2018-12-03T21:18:18.634Z,99398.56
2018-12-03T21:20:48.558Z,99401.30
2018-12-03T21:23:19.234Z,99405.23
2018-12-03T21:25:50.216Z,99411.78
2018-12-03T21:28:21.199Z,99419.41
2018-12-03T21:30:52.106Z,99413.55
2018-12-03T21:33:23.425Z,99430.91
2018-12-03T21:35:56.731Z,99431.13
2018-12-03T21:38:29.865Z,99428.63
2018-12-03T21:41:01.128Z,99434.72
2018-12-03T21:43:35.428Z,99433.56
2018-12-03T21:46:06.689Z,99436.52
2018-12-03T21:48:37.469Z,99442.34
2018-12-03T21:51:08.465Z,99444.37
2018-12-03T21:53:38.935Z,99441.30
2018-12-03T21:56:09.820Z,99452.44
2018-12-03T21:58:40.220Z,99449.23
2018-12-03T22:01:11.714Z,99456.03
2018-12-03T22:03:43.001Z,99468.15
2018-12-03T22:06:14.043Z,99464.99
2018-12-03T22:08:45.641Z,99480.31
2018-12-03T22:11:29.133Z,99476.48
2018-12-03T22:14:00.418Z,99490.45
2018-12-03T22:16:31.281Z,99495.38
2018-12-03T22:19:01.784Z,99499.52
2018-12-03T22:21:33.098Z,99506.18
2018-12-03T22:24:04.182Z,99506.39
2018-12-03T22:26:35.376Z,99517.48
2018-12-03T22:29:06.885Z,99519.31
2018-12-03T22:31:37.952Z,99528.09
2018-12-03T22:34:08.451Z,99538.35
2018-12-03T22:36:41.448Z,99548.10
2018-12-03T22:39:12.500Z,99549.34
2018-12-03T22:41:43.459Z,99557.36
2018-12-03T22:44:14.223Z,99565.74
2018-12-03T22:46:45.151Z,99574.20
2018-12-03T22:49:16.019Z,99578.24
2018-12-03T22:51:46.622Z,99583.16
2018-12-03T22:54:17.718Z,99596.23
2018-12-03T22:56:47.820Z,99595.33
2018-12-03T22:59:18.712Z,99594.87
2018-12-03T23:01:49.668Z,99602.19
2018-12-03T23:04:20.221Z,99605.51
2018-12-03T23:06:50.661Z,99608.84
2018-12-03T23:09:21.504Z,99613.62
2018-12-03T23:11:53.447Z,99618.73
2018-12-03T23:14:24.475Z,99623.64
2018-12-03T23:16:55.797Z,99624.75
2018-12-03T23:19:27.198Z,99632.60
2018-12-03T23:21:57.540Z,99642.48
2018-12-03T23:24:28.786Z,99640.39
2018-12-03T23:27:01.668Z,99648.50
2018-12-03T23:29:32.751Z,99663.59
2018-12-03T23:32:03.917Z,99681.55
2018-12-03T23:34:35.158Z,99694.67
2018-12-03T23:37:06.397Z,99713.59
2018-12-03T23:39:37.611Z,99721.24
2018-12-03T23:42:08.525Z,99743.03
2018-12-03T23:44:39.447Z,99761.53
2018-12-03T23:47:10.710Z,99772.63
2018-12-03T23:49:41.456Z,99786.42
2018-12-03T23:52:12.290Z,99817.00
2018-12-03T23:54:42.867Z,99830.41
2018-12-03T23:57:12.542Z,99845.64
2018-12-03T23:59:43.850Z,99836.50
